Aviation Digital Data Service (ADDS)

Output produced by METARs form (2045 UTC 08 August 2020)
found at http://www.aviationweather.gov/metar/data/
 
METAR text: RORK 082000Z AUTO 16016KT 9999 -RA FEW012 SCT150 BKN160 //////CB 28/26 Q1010
Conditions at: RORK (KITADAITO ISLAND, JP) observed 2000 UTC 08 August 2020
Temperature: 28.0°C (82°F)
Dewpoint: 26.0°C (79°F) [RH = 89%]
Pressure (altimeter): 29.82 inches Hg (1010.0 mb)
Winds: from the SSE (160 degrees) at 18 MPH (16 knots; 8.2 m/s)
Visibility: 6 or more miles (10+ km)
Ceiling: 16000 feet AGL
Clouds: few clouds at 1200 feet AGL
scattered clouds at 15000 feet AGL
broken clouds at 16000 feet AGL
Weather: -RA  (light rain)

METAR text: RORK 081900Z AUTO 16018KT 9999 -RA FEW019 SCT110 BKN120 //////TCU 28/26 Q1010
Conditions at: RORK (KITADAITO ISLAND, JP) observed 1900 UTC 08 August 2020
Temperature: 28.0°C (82°F)
Dewpoint: 26.0°C (79°F) [RH = 89%]
Pressure (altimeter): 29.82 inches Hg (1010.0 mb)
Winds: from the SSE (160 degrees) at 21 MPH (18 knots; 9.3 m/s)
Visibility: 6 or more miles (10+ km)
Ceiling: 12000 feet AGL
Clouds: few clouds at 1900 feet AGL
scattered clouds at 11000 feet AGL
broken clouds at 12000 feet AGL
Weather: -RA  (light rain)

METAR text: RORK 081800Z AUTO 15016KT 9999 -RA BKN013 BKN080 BKN110 //////TCU 29/27 Q1010
Conditions at: RORK (KITADAITO ISLAND, JP) observed 1800 UTC 08 August 2020
Temperature: 29.0°C (84°F)
Dewpoint: 27.0°C (81°F) [RH = 89%]
Pressure (altimeter): 29.82 inches Hg (1010.0 mb)
Winds: from the SSE (150 degrees) at 18 MPH (16 knots; 8.2 m/s)
Visibility: 6 or more miles (10+ km)
Ceiling: 1300 feet AGL
Clouds: broken clouds at 1300 feet AGL
broken clouds at 8000 feet AGL
broken clouds at 11000 feet AGL
Weather: -RA  (light rain)

METAR text: RORK 081700Z AUTO 15021KT 9999 -RA SCT017 SCT025 BKN080 29/27 Q1010
Conditions at: RORK (KITADAITO ISLAND, JP) observed 1700 UTC 08 August 2020
Temperature: 29.0°C (84°F)
Dewpoint: 27.0°C (81°F) [RH = 89%]
Pressure (altimeter): 29.82 inches Hg (1010.0 mb)
Winds: from the SSE (150 degrees) at 24 MPH (21 knots; 10.8 m/s)
Visibility: 6 or more miles (10+ km)
Ceiling: 8000 feet AGL
Clouds: scattered clouds at 1700 feet AGL
scattered clouds at 2500 feet AGL
broken clouds at 8000 feet AGL
Weather: -RA  (light rain)

METAR text: RORK 081600Z AUTO 14020KT 9999 SCT019 BKN022 BKN150 29/26 Q1010
Conditions at: RORK (KITADAITO ISLAND, JP) observed 1600 UTC 08 August 2020
Temperature: 29.0°C (84°F)
Dewpoint: 26.0°C (79°F) [RH = 84%]
Pressure (altimeter): 29.82 inches Hg (1010.0 mb)
Winds: from the SE (140 degrees) at 23 MPH (20 knots; 10.3 m/s)
Visibility: 6 or more miles (10+ km)
Ceiling: 2200 feet AGL
Clouds: scattered clouds at 1900 feet AGL
broken clouds at 2200 feet AGL
broken clouds at 15000 feet AGL
Weather: no significant weather observed at this time

METAR text: RORK 081500Z AUTO 14018KT 9999 SCT020 BKN140 29/26 Q1010
Conditions at: RORK (KITADAITO ISLAND, JP) observed 1500 UTC 08 August 2020
Temperature: 29.0°C (84°F)
Dewpoint: 26.0°C (79°F) [RH = 84%]
Pressure (altimeter): 29.82 inches Hg (1010.0 mb)
Winds: from the SE (140 degrees) at 21 MPH (18 knots; 9.3 m/s)
Visibility: 6 or more miles (10+ km)
Ceiling: 14000 feet AGL
Clouds: scattered clouds at 2000 feet AGL
broken clouds at 14000 feet AGL
Weather: no significant weather observed at this time

METAR text: RORK 081400Z AUTO 14018KT 9999 SCT020 SCT029 BKN130 29/26 Q1011
Conditions at: RORK (KITADAITO ISLAND, JP) observed 1400 UTC 08 August 2020
Temperature: 29.0°C (84°F)
Dewpoint: 26.0°C (79°F) [RH = 84%]
Pressure (altimeter): 29.85 inches Hg (1011.0 mb)
Winds: from the SE (140 degrees) at 21 MPH (18 knots; 9.3 m/s)
Visibility: 6 or more miles (10+ km)
Ceiling: 13000 feet AGL
Clouds: scattered clouds at 2000 feet AGL
scattered clouds at 2900 feet AGL
broken clouds at 13000 feet AGL
Weather: no significant weather observed at this time

METAR text: RORK 081300Z AUTO 14019KT 9999 BKN021 OVC150 29/25 Q1011
Conditions at: RORK (KITADAITO ISLAND, JP) observed 1300 UTC 08 August 2020
Temperature: 29.0°C (84°F)
Dewpoint: 25.0°C (77°F) [RH = 79%]
Pressure (altimeter): 29.85 inches Hg (1011.0 mb)
Winds: from the SE (140 degrees) at 22 MPH (19 knots; 9.8 m/s)
Visibility: 6 or more miles (10+ km)
Ceiling: 2100 feet AGL
Clouds: broken clouds at 2100 feet AGL
overcast cloud deck at 15000 feet AGL
Weather: no significant weather observed at this time

METAR text: RORK 081200Z AUTO 11016KT 9999 FEW015 BKN150 OVC160 29/26 Q1010
Conditions at: RORK (KITADAITO ISLAND, JP) observed 1200 UTC 08 August 2020
Temperature: 29.0°C (84°F)
Dewpoint: 26.0°C (79°F) [RH = 84%]
Pressure (altimeter): 29.82 inches Hg (1010.0 mb)
Winds: from the ESE (110 degrees) at 18 MPH (16 knots; 8.2 m/s)
Visibility: 6 or more miles (10+ km)
Ceiling: 15000 feet AGL
Clouds: few clouds at 1500 feet AGL
broken clouds at 15000 feet AGL
overcast cloud deck at 16000 feet AGL
Weather: no significant weather observed at this time

METAR text: RORK 081100Z AUTO 12017KT 9999 BKN016 BKN160 BKN180 29/26 Q1010
Conditions at: RORK (KITADAITO ISLAND, JP) observed 1100 UTC 08 August 2020
Temperature: 29.0°C (84°F)
Dewpoint: 26.0°C (79°F) [RH = 84%]
Pressure (altimeter): 29.82 inches Hg (1010.0 mb)
Winds: from the ESE (120 degrees) at 20 MPH (17 knots; 8.7 m/s)
Visibility: 6 or more miles (10+ km)
Ceiling: 1600 feet AGL
Clouds: broken clouds at 1600 feet AGL
broken clouds at 16000 feet AGL
broken clouds at 18000 feet AGL
Weather: no significant weather observed at this time

METAR text: RORK 081000Z AUTO 12018KT 9999 BKN016 BKN170 29/25 Q1010
Conditions at: RORK (KITADAITO ISLAND, JP) observed 1000 UTC 08 August 2020
Temperature: 29.0°C (84°F)
Dewpoint: 25.0°C (77°F) [RH = 79%]
Pressure (altimeter): 29.82 inches Hg (1010.0 mb)
Winds: from the ESE (120 degrees) at 21 MPH (18 knots; 9.3 m/s)
Visibility: 6 or more miles (10+ km)
Ceiling: 1600 feet AGL
Clouds: broken clouds at 1600 feet AGL
broken clouds at 17000 feet AGL
Weather: no significant weather observed at this time

METAR text: RORK 080900Z AUTO 10018KT 9999 SCT015 SCT019 BKN024 29/26 Q1010
Conditions at: RORK (KITADAITO ISLAND, JP) observed 0900 UTC 08 August 2020
Temperature: 29.0°C (84°F)
Dewpoint: 26.0°C (79°F) [RH = 84%]
Pressure (altimeter): 29.82 inches Hg (1010.0 mb)
Winds: from the E (100 degrees) at 21 MPH (18 knots; 9.3 m/s)
Visibility: 6 or more miles (10+ km)
Ceiling: 2400 feet AGL
Clouds: scattered clouds at 1500 feet AGL
scattered clouds at 1900 feet AGL
broken clouds at 2400 feet AGL
Weather: no significant weather observed at this time

METAR text: RORK 080800Z AUTO 11017KT 9999 FEW014 BKN160 28/25 Q1010
Conditions at: RORK (KITADAITO ISLAND, JP) observed 0800 UTC 08 August 2020
Temperature: 28.0°C (82°F)
Dewpoint: 25.0°C (77°F) [RH = 84%]
Pressure (altimeter): 29.82 inches Hg (1010.0 mb)
Winds: from the ESE (110 degrees) at 20 MPH (17 knots; 8.7 m/s)
Visibility: 6 or more miles (10+ km)
Ceiling: 16000 feet AGL
Clouds: few clouds at 1400 feet AGL
broken clouds at 16000 feet AGL
Weather: no significant weather observed at this time

METAR text: RORK 080700Z AUTO 13018KT 9999 FEW011 SCT015 BKN042 28/25 Q1010
Conditions at: RORK (KITADAITO ISLAND, JP) observed 0700 UTC 08 August 2020
Temperature: 28.0°C (82°F)
Dewpoint: 25.0°C (77°F) [RH = 84%]
Pressure (altimeter): 29.82 inches Hg (1010.0 mb)
Winds: from the SE (130 degrees) at 21 MPH (18 knots; 9.3 m/s)
Visibility: 6 or more miles (10+ km)
Ceiling: 4200 feet AGL
Clouds: few clouds at 1100 feet AGL
scattered clouds at 1500 feet AGL
broken clouds at 4200 feet AGL
Weather: no significant weather observed at this time

METAR text: RORK 080613Z AUTO 13016KT 9999 -RA FEW047 BKN060 BKN070 //////CB 27/24 Q1010 RMK A2985 CB 35KM NE MOV N
Conditions at: RORK (KITADAITO ISLAND, JP) observed 0613 UTC 08 August 2020
Temperature: 27.0°C (81°F)
Dewpoint: 24.0°C (75°F) [RH = 84%]
Pressure (altimeter): 29.82 inches Hg (1010.0 mb)
Winds: from the SE (130 degrees) at 18 MPH (16 knots; 8.2 m/s)
Visibility: 6 or more miles (10+ km)
Ceiling: 6000 feet AGL
Clouds: few clouds at 4700 feet AGL
broken clouds at 6000 feet AGL
broken clouds at 7000 feet AGL
Weather: -RA  (light rain)

METAR text: RORK 080600Z AUTO 14016KT 9999 RA FEW050 SCT060 BKN070 //////CB 26/24 Q1010
Conditions at: RORK (KITADAITO ISLAND, JP) observed 0600 UTC 08 August 2020
Temperature: 26.0°C (79°F)
Dewpoint: 24.0°C (75°F) [RH = 89%]
Pressure (altimeter): 29.82 inches Hg (1010.0 mb)
Winds: from the SE (140 degrees) at 18 MPH (16 knots; 8.2 m/s)
Visibility: 6 or more miles (10+ km)
Ceiling: 7000 feet AGL
Clouds: few clouds at 5000 feet AGL
scattered clouds at 6000 feet AGL
broken clouds at 7000 feet AGL
Weather: RA  (moderate rain)

METAR text: RORK 080500Z AUTO 17021KT 9999 FEW018 SCT036 BKN230 //////TCU 30/25 Q1010
Conditions at: RORK (KITADAITO ISLAND, JP) observed 0500 UTC 08 August 2020
Temperature: 30.0°C (86°F)
Dewpoint: 25.0°C (77°F) [RH = 75%]
Pressure (altimeter): 29.82 inches Hg (1010.0 mb)
Winds: from the S (170 degrees) at 24 MPH (21 knots; 10.8 m/s)
Visibility: 6 or more miles (10+ km)
Ceiling: 23000 feet AGL
Clouds: few clouds at 1800 feet AGL
scattered clouds at 3600 feet AGL
broken clouds at 23000 feet AGL
Weather: no significant weather observed at this time

METAR text: RORK 080400Z AUTO VRB02KT 9999 BKN026 BKN045 //////CB 29/25 Q1010
Conditions at: RORK (KITADAITO ISLAND, JP) observed 0400 UTC 08 August 2020
Temperature: 29.0°C (84°F)
Dewpoint: 25.0°C (77°F) [RH = 79%]
Pressure (altimeter): 29.82 inches Hg (1010.0 mb)
Winds: variable direction winds at 2 MPH (2 knots; 1.0 m/s)
Visibility: 6 or more miles (10+ km)
Ceiling: 2600 feet AGL
Clouds: broken clouds at 2600 feet AGL
broken clouds at 4500 feet AGL
Weather: no significant weather observed at this time

METAR text: RORK 080340Z AUTO VRB05KT 9999 RA FEW023 BKN030 BKN045 //////TCU 28/25 Q1010 RMK A2984 RI006 TCU 15KM N MOV UNKNOWN AND 25KM SW MOV N
Conditions at: RORK (KITADAITO ISLAND, JP) observed 0340 UTC 08 August 2020
Temperature: 28.0°C (82°F)
Dewpoint: 25.0°C (77°F) [RH = 84%]
Pressure (altimeter): 29.82 inches Hg (1010.0 mb)
Winds: variable direction winds at 6 MPH (5 knots; 2.6 m/s)
Visibility: 6 or more miles (10+ km)
Ceiling: 3000 feet AGL
Clouds: few clouds at 2300 feet AGL
broken clouds at 3000 feet AGL
broken clouds at 4500 feet AGL
Weather: RA  (moderate rain)

METAR text: RORK 080335Z AUTO 22010KT 1800 +RA BR FEW023 SCT031 BKN045 //////TCU 28/23 Q1010 RMK A2984 RI018 TCU 5KM NE MOV N
Conditions at: RORK (KITADAITO ISLAND, JP) observed 0335 UTC 08 August 2020
Temperature: 28.0°C (82°F)
Dewpoint: 23.0°C (73°F) [RH = 74%]
Pressure (altimeter): 29.82 inches Hg (1010.0 mb)
Winds: from the SW (220 degrees) at 12 MPH (10 knots; 5.1 m/s)
Visibility: 1.12 miles (1.80 km)
Ceiling: 4500 feet AGL
Clouds: few clouds at 2300 feet AGL
scattered clouds at 3100 feet AGL
broken clouds at 4500 feet AGL
Weather: +RA BR  (heavy rain, mist)

METAR text: RORK 080332Z AUTO 19020KT 2200 -RA BR FEW023 SCT037 BKN050 //////TCU 29/24 Q1010 RMK A2984 TCU 5KM NE MOV N
Conditions at: RORK (KITADAITO ISLAND, JP) observed 0332 UTC 08 August 2020
Temperature: 29.0°C (84°F)
Dewpoint: 24.0°C (75°F) [RH = 74%]
Pressure (altimeter): 29.82 inches Hg (1010.0 mb)
Winds: from the S (190 degrees) at 23 MPH (20 knots; 10.3 m/s)
Visibility: 1.37 miles (2.20 km)
Ceiling: 5000 feet AGL
Clouds: few clouds at 2300 feet AGL
scattered clouds at 3700 feet AGL
broken clouds at 5000 feet AGL
Weather: -RA BR  (light rain, mist)

METAR text: RORK 080300Z AUTO 15014KT 9999 SCT026 SCT036 BKN070 34/26 Q1010
Conditions at: RORK (KITADAITO ISLAND, JP) observed 0300 UTC 08 August 2020
Temperature: 34.0°C (93°F)
Dewpoint: 26.0°C (79°F) [RH = 63%]
Pressure (altimeter): 29.82 inches Hg (1010.0 mb)
Winds: from the SSE (150 degrees) at 16 MPH (14 knots; 7.2 m/s)
Visibility: 6 or more miles (10+ km)
Ceiling: 7000 feet AGL
Clouds: scattered clouds at 2600 feet AGL
scattered clouds at 3600 feet AGL
broken clouds at 7000 feet AGL
Weather: no significant weather observed at this time

METAR text: RORK 080200Z AUTO 15013KT 9999 FEW027 SCT050 BKN110 33/25 Q1011
Conditions at: RORK (KITADAITO ISLAND, JP) observed 0200 UTC 08 August 2020
Temperature: 33.0°C (91°F)
Dewpoint: 25.0°C (77°F) [RH = 63%]
Pressure (altimeter): 29.85 inches Hg (1011.0 mb)
Winds: from the SSE (150 degrees) at 15 MPH (13 knots; 6.7 m/s)
Visibility: 6 or more miles (10+ km)
Ceiling: 11000 feet AGL
Clouds: few clouds at 2700 feet AGL
scattered clouds at 5000 feet AGL
broken clouds at 11000 feet AGL
Weather: no significant weather observed at this time

METAR text: RORK 080100Z AUTO 13011KT 9999 FEW025 SCT032 BKN120 31/25 Q1011
Conditions at: RORK (KITADAITO ISLAND, JP) observed 0100 UTC 08 August 2020
Temperature: 31.0°C (88°F)
Dewpoint: 25.0°C (77°F) [RH = 71%]
Pressure (altimeter): 29.85 inches Hg (1011.0 mb)
Winds: from the SE (130 degrees) at 13 MPH (11 knots; 5.7 m/s)
Visibility: 6 or more miles (10+ km)
Ceiling: 12000 feet AGL
Clouds: few clouds at 2500 feet AGL
scattered clouds at 3200 feet AGL
broken clouds at 12000 feet AGL
Weather: no significant weather observed at this time

METAR text: RORK 080000Z AUTO 13010KT 9999 SCT022 31/25 Q1010
Conditions at: RORK (KITADAITO ISLAND, JP) observed 0000 UTC 08 August 2020
Temperature: 31.0°C (88°F)
Dewpoint: 25.0°C (77°F) [RH = 71%]
Pressure (altimeter): 29.82 inches Hg (1010.0 mb)
Winds: from the SE (130 degrees) at 12 MPH (10 knots; 5.1 m/s)
Visibility: 6 or more miles (10+ km)
Ceiling: at least 12,000 feet AGL
Clouds: scattered clouds at 2200 feet AGL
Weather: no significant weather observed at this time

METAR text: RORK 072300Z AUTO 13011KT 9999 FEW023 31/25 Q1010
Conditions at: RORK (KITADAITO ISLAND, JP) observed 2300 UTC 07 August 2020
Temperature: 31.0°C (88°F)
Dewpoint: 25.0°C (77°F) [RH = 71%]
Pressure (altimeter): 29.82 inches Hg (1010.0 mb)
Winds: from the SE (130 degrees) at 13 MPH (11 knots; 5.7 m/s)
Visibility: 6 or more miles (10+ km)
Ceiling: at least 12,000 feet AGL
Clouds: few clouds at 2300 feet AGL
Weather: no significant weather observed at this time

METAR text: RORK 072200Z AUTO 12012KT 9999 FEW026 SCT160 OVC170 30/24 Q1011
Conditions at: RORK (KITADAITO ISLAND, JP) observed 2200 UTC 07 August 2020
Temperature: 30.0°C (86°F)
Dewpoint: 24.0°C (75°F) [RH = 70%]
Pressure (altimeter): 29.85 inches Hg (1011.0 mb)
Winds: from the ESE (120 degrees) at 14 MPH (12 knots; 6.2 m/s)
Visibility: 6 or more miles (10+ km)
Ceiling: 17000 feet AGL
Clouds: few clouds at 2600 feet AGL
scattered clouds at 16000 feet AGL
overcast cloud deck at 17000 feet AGL
Weather: no significant weather observed at this time

METAR text: RORK 072100Z AUTO 10010KT 9999 NCD 29/24 Q1010
Conditions at: RORK (KITADAITO ISLAND, JP) observed 2100 UTC 07 August 2020
Temperature: 29.0°C (84°F)
Dewpoint: 24.0°C (75°F) [RH = 74%]
Pressure (altimeter): 29.82 inches Hg (1010.0 mb)
Winds: from the E (100 degrees) at 12 MPH (10 knots; 5.1 m/s)
Visibility: 6 or more miles (10+ km)
Ceiling: at least 12,000 feet AGL
Clouds: sky clear below 12,000 feet AGL
Weather: no significant weather observed at this time

METAR text: RORK 072000Z AUTO 09006KT 9999 NSC 29/25 Q1010
Conditions at: RORK (KITADAITO ISLAND, JP) observed 2000 UTC 07 August 2020
Temperature: 29.0°C (84°F)
Dewpoint: 25.0°C (77°F) [RH = 79%]
Pressure (altimeter): 29.82 inches Hg (1010.0 mb)
Winds: from the E (90 degrees) at 7 MPH (6 knots; 3.1 m/s)
Visibility: 6 or more miles (10+ km)
Ceiling: at least 12,000 feet AGL
Clouds: sky clear below 12,000 feet AGL
Weather: no significant weather observed at this time

METAR text: RORK 071900Z AUTO 10006KT 9999 NSC 29/24 Q1009
Conditions at: RORK (KITADAITO ISLAND, JP) observed 1900 UTC 07 August 2020
Temperature: 29.0°C (84°F)
Dewpoint: 24.0°C (75°F) [RH = 74%]
Pressure (altimeter): 29.79 inches Hg (1009.0 mb)
Winds: from the E (100 degrees) at 7 MPH (6 knots; 3.1 m/s)
Visibility: 6 or more miles (10+ km)
Ceiling: at least 12,000 feet AGL
Clouds: sky clear below 12,000 feet AGL
Weather: no significant weather observed at this time

METAR text: RORK 071800Z AUTO 11004KT 9999 NSC 28/23 Q1009
Conditions at: RORK (KITADAITO ISLAND, JP) observed 1800 UTC 07 August 2020
Temperature: 28.0°C (82°F)
Dewpoint: 23.0°C (73°F) [RH = 74%]
Pressure (altimeter): 29.79 inches Hg (1009.0 mb)
Winds: from the ESE (110 degrees) at 5 MPH (4 knots; 2.1 m/s)
Visibility: 6 or more miles (10+ km)
Ceiling: at least 12,000 feet AGL
Clouds: sky clear below 12,000 feet AGL
Weather: no significant weather observed at this time

METAR text: RORK 071700Z AUTO 23004KT 9999 NSC 27/24 Q1009
Conditions at: RORK (KITADAITO ISLAND, JP) observed 1700 UTC 07 August 2020
Temperature: 27.0°C (81°F)
Dewpoint: 24.0°C (75°F) [RH = 84%]
Pressure (altimeter): 29.79 inches Hg (1009.0 mb)
Winds: from the SW (230 degrees) at 5 MPH (4 knots; 2.1 m/s)
Visibility: 6 or more miles (10+ km)
Ceiling: at least 12,000 feet AGL
Clouds: sky clear below 12,000 feet AGL
Weather: no significant weather observed at this time

METAR text: RORK 071600Z AUTO 18009KT 9999 NSC 28/23 Q1010
Conditions at: RORK (KITADAITO ISLAND, JP) observed 1600 UTC 07 August 2020
Temperature: 28.0°C (82°F)
Dewpoint: 23.0°C (73°F) [RH = 74%]
Pressure (altimeter): 29.82 inches Hg (1010.0 mb)
Winds: from the S (180 degrees) at 10 MPH (9 knots; 4.6 m/s)
Visibility: 6 or more miles (10+ km)
Ceiling: at least 12,000 feet AGL
Clouds: sky clear below 12,000 feet AGL
Weather: no significant weather observed at this time

METAR text: RORK 071500Z AUTO 18017KT 9999 FEW015 SCT200 BKN210 //////CB 28/24 Q1012
Conditions at: RORK (KITADAITO ISLAND, JP) observed 1500 UTC 07 August 2020
Temperature: 28.0°C (82°F)
Dewpoint: 24.0°C (75°F) [RH = 79%]
Pressure (altimeter): 29.88 inches Hg (1012.0 mb)
Winds: from the S (180 degrees) at 20 MPH (17 knots; 8.7 m/s)
Visibility: 6 or more miles (10+ km)
Ceiling: 21000 feet AGL
Clouds: few clouds at 1500 feet AGL
scattered clouds at 20000 feet AGL
broken clouds at 21000 feet AGL
Weather: no significant weather observed at this time

METAR text: RORK 071400Z AUTO 18024KT 8000 -TSRA FEW012 SCT017 BKN036 //////CB 28/25 Q1012
Conditions at: RORK (KITADAITO ISLAND, JP) observed 1400 UTC 07 August 2020
Temperature: 28.0°C (82°F)
Dewpoint: 25.0°C (77°F) [RH = 84%]
Pressure (altimeter): 29.88 inches Hg (1012.0 mb)
Winds: from the S (180 degrees) at 28 MPH (24 knots; 12.3 m/s)
Visibility: 5 miles ( 8 km)
Ceiling: 3600 feet AGL
Clouds: few clouds at 1200 feet AGL
scattered clouds at 1700 feet AGL
broken clouds at 3600 feet AGL
Weather: -TSRA  (light rain associated with thunderstorm(s))

METAR text: RORK 071300Z AUTO 13018KT 9999 NSC 29/26 Q1012
Conditions at: RORK (KITADAITO ISLAND, JP) observed 1300 UTC 07 August 2020
Temperature: 29.0°C (84°F)
Dewpoint: 26.0°C (79°F) [RH = 84%]
Pressure (altimeter): 29.88 inches Hg (1012.0 mb)
Winds: from the SE (130 degrees) at 21 MPH (18 knots; 9.3 m/s)
Visibility: 6 or more miles (10+ km)
Ceiling: at least 12,000 feet AGL
Clouds: sky clear below 12,000 feet AGL
Weather: no significant weather observed at this time

METAR text: RORK 071200Z AUTO 14019KT 9999 FEW017 29/25 Q1012
Conditions at: RORK (KITADAITO ISLAND, JP) observed 1200 UTC 07 August 2020
Temperature: 29.0°C (84°F)
Dewpoint: 25.0°C (77°F) [RH = 79%]
Pressure (altimeter): 29.88 inches Hg (1012.0 mb)
Winds: from the SE (140 degrees) at 22 MPH (19 knots; 9.8 m/s)
Visibility: 6 or more miles (10+ km)
Ceiling: at least 12,000 feet AGL
Clouds: few clouds at 1700 feet AGL
Weather: no significant weather observed at this time

METAR text: RORK 071100Z AUTO 13015KT 9999 NCD 30/26 Q1012
Conditions at: RORK (KITADAITO ISLAND, JP) observed 1100 UTC 07 August 2020
Temperature: 30.0°C (86°F)
Dewpoint: 26.0°C (79°F) [RH = 79%]
Pressure (altimeter): 29.88 inches Hg (1012.0 mb)
Winds: from the SE (130 degrees) at 17 MPH (15 knots; 7.7 m/s)
Visibility: 6 or more miles (10+ km)
Ceiling: at least 12,000 feet AGL
Clouds: sky clear below 12,000 feet AGL
Weather: no significant weather observed at this time

METAR text: RORK 071000Z AUTO 13019KT 9999 NCD 29/25 Q1011
Conditions at: RORK (KITADAITO ISLAND, JP) observed 1000 UTC 07 August 2020
Temperature: 29.0°C (84°F)
Dewpoint: 25.0°C (77°F) [RH = 79%]
Pressure (altimeter): 29.85 inches Hg (1011.0 mb)
Winds: from the SE (130 degrees) at 22 MPH (19 knots; 9.8 m/s)
Visibility: 6 or more miles (10+ km)
Ceiling: at least 12,000 feet AGL
Clouds: sky clear below 12,000 feet AGL
Weather: no significant weather observed at this time

METAR text: RORK 070900Z AUTO 13019KT 9999 BKN019 BKN029 30/26 Q1011
Conditions at: RORK (KITADAITO ISLAND, JP) observed 0900 UTC 07 August 2020
Temperature: 30.0°C (86°F)
Dewpoint: 26.0°C (79°F) [RH = 79%]
Pressure (altimeter): 29.85 inches Hg (1011.0 mb)
Winds: from the SE (130 degrees) at 22 MPH (19 knots; 9.8 m/s)
Visibility: 6 or more miles (10+ km)
Ceiling: 1900 feet AGL
Clouds: broken clouds at 1900 feet AGL
broken clouds at 2900 feet AGL
Weather: no significant weather observed at this time